6I2

Lebanon Springfield-George Hoerter Field Airport

Springfield, Kentucky, USA
METAR K6I2 172350Z AUTO 05005KT 8SM CLR 07/05 A3021 RMK AO2
Observed Flight Rules
Nov-17 @ 23:50 UTC (24 minutes ago) Visual Flight Rules
Wind Visibility Clouds
50° at 5 knots 8 miles
  • Clear skies
Temperatures Readings
Current 7°C / 45°F
Dewpoint 5°C / 41°F
Humidity 87%
Altimeter 30.21" Hg
Pressure 1023 hPa
Elevation 264
METAR K6I2 172350Z AUTO 05005KT 8SM CLR 07/05 A3021 RMK AO2
Observed Flight Rules
Nov-17 @ 23:50 UTC
(24 minutes ago)
VFR
Wind Visibility
50° at 5 knots 8 miles
Clouds
  • Clear skies
Temperature Dewpoint
7°C / 45°F 5°C / 41°F
Humidity Altimeter Pressure
87% 30.21" Hg 1023 hPa